createdAt,value
2017-12-23T00:00:53.884Z,1025.12
2017-12-23T00:02:03.836Z,1025.13
2017-12-23T00:03:13.790Z,1025.13
2017-12-23T00:04:23.755Z,1025.07
2017-12-23T00:05:33.467Z,1025.06
2017-12-23T00:06:43.489Z,1025.08
2017-12-23T00:07:53.445Z,1025.07
2017-12-23T00:09:03.202Z,1025.07
2017-12-23T00:10:13.162Z,1025.08
2017-12-23T00:11:22.871Z,1025.05
2017-12-23T00:12:32.566Z,1024.99
2017-12-23T00:13:42.252Z,1024.93
2017-12-23T00:14:51.967Z,1024.92
2017-12-23T00:16:01.416Z,1024.84
2017-12-23T00:17:11.364Z,1024.94
2017-12-23T00:18:21.337Z,1024.88
2017-12-23T00:19:31.288Z,1024.87
2017-12-23T00:20:40.989Z,1024.82
2017-12-23T00:21:50.938Z,1024.76
2017-12-23T00:23:00.635Z,1024.81
2017-12-23T00:24:10.583Z,1024.8
2017-12-23T00:25:20.538Z,1024.78
2017-12-23T00:26:30.241Z,1024.8
2017-12-23T00:27:40.193Z,1024.61
2017-12-23T00:28:49.897Z,1024.57
2017-12-23T00:29:59.854Z,1024.58
2017-12-23T00:31:09.554Z,1024.5
2017-12-23T00:32:19.501Z,1024.53
2017-12-23T00:33:29.450Z,1024.52
2017-12-23T00:34:39.133Z,1024.45
2017-12-23T00:35:49.084Z,1024.44
2017-12-23T00:36:58.784Z,1024.39
2017-12-23T00:38:08.503Z,1024.45
2017-12-23T00:39:18.474Z,1024.37
2017-12-23T00:40:28.436Z,1024.44
2017-12-23T00:41:38.137Z,1024.39
2017-12-23T00:42:48.093Z,1024.36
2017-12-23T00:43:57.790Z,1024.29
2017-12-23T00:45:07.218Z,1024.32
2017-12-23T00:46:17.160Z,1024.29
2017-12-23T00:47:27.184Z,1024.37
2017-12-23T00:48:37.122Z,1024.36
2017-12-23T00:49:47.062Z,1024.37
2017-12-23T00:50:57.002Z,1024.38
2017-12-23T00:52:06.697Z,1024.49
2017-12-23T00:53:16.396Z,1024.45
2017-12-23T00:54:26.349Z,1024.56
2017-12-23T00:55:35.773Z,1024.41
2017-12-23T00:56:45.726Z,1024.43
2017-12-23T00:57:55.670Z,1024.35
2017-12-23T00:59:05.623Z,1024.38
2017-12-23T01:00:15.130Z,1024.41
2017-12-23T01:01:25.074Z,1024.34
2017-12-23T01:02:35.018Z,1024.27
2017-12-23T01:03:44.984Z,1024.26
2017-12-23T01:04:54.944Z,1024.16
2017-12-23T01:06:04.889Z,1024.08
2017-12-23T01:07:14.828Z,1024.01
2017-12-23T01:08:24.783Z,1024.17
2017-12-23T01:09:34.465Z,1024.04
2017-12-23T01:10:44.410Z,1023.98
2017-12-23T01:11:54.100Z,1023.94
2017-12-23T01:13:04.046Z,1023.93
2017-12-23T01:14:14.020Z,1023.91
2017-12-23T01:15:23.712Z,1023.88
2017-12-23T01:16:33.407Z,1023.87
2017-12-23T01:17:43.101Z,1023.91
2017-12-23T01:18:52.795Z,1023.89
2017-12-23T01:20:02.743Z,1023.98
2017-12-23T01:21:12.426Z,1023.97
2017-12-23T01:22:22.389Z,1024.01
2017-12-23T01:23:31.822Z,1023.9
2017-12-23T01:24:41.755Z,1024
2017-12-23T01:25:51.439Z,1024
2017-12-23T01:27:01.397Z,1024.06
2017-12-23T01:28:11.344Z,1023.94
2017-12-23T01:29:21.305Z,1023.99
2017-12-23T01:30:31.261Z,1023.92
2017-12-23T01:31:41.208Z,1023.92
2017-12-23T01:32:51.204Z,1023.82
2017-12-23T01:34:01.150Z,1023.83
2017-12-23T01:35:10.835Z,1023.84
2017-12-23T01:36:20.792Z,1023.9
2017-12-23T01:37:30.751Z,1023.78
2017-12-23T01:38:40.717Z,1023.84
2017-12-23T01:39:50.668Z,1023.79
2017-12-23T01:41:00.676Z,1023.7
2017-12-23T01:42:10.626Z,1023.71
2017-12-23T01:43:20.573Z,1023.59
2017-12-23T01:44:30.520Z,1023.6
2017-12-23T01:45:40.283Z,1023.49
2017-12-23T01:46:49.982Z,1023.57
2017-12-23T01:47:59.685Z,1023.54
2017-12-23T01:49:09.631Z,1023.59
2017-12-23T01:50:19.578Z,1023.61
2017-12-23T01:51:29.269Z,1023.57
2017-12-23T01:52:38.954Z,1023.68
2017-12-23T01:53:48.924Z,1023.62
2017-12-23T01:54:58.885Z,1023.61
2017-12-23T01:56:08.568Z,1023.66
2017-12-23T01:57:18.516Z,1023.56
2017-12-23T01:58:28.198Z,1023.6
2017-12-23T01:59:37.890Z,1023.54
2017-12-23T02:00:47.581Z,1023.47
2017-12-23T02:01:57.009Z,1023.54
2017-12-23T02:03:06.958Z,1023.49
2017-12-23T02:04:16.902Z,1023.5
2017-12-23T02:05:26.859Z,1023.52
2017-12-23T02:06:36.800Z,1023.59
2017-12-23T02:07:46.746Z,1023.43
2017-12-23T02:08:56.429Z,1023.38
2017-12-23T02:10:06.384Z,1023.32
2017-12-23T02:11:16.081Z,1023.33
2017-12-23T02:12:26.029Z,1023.33
2017-12-23T02:13:35.979Z,1023.34
2017-12-23T02:14:45.924Z,1023.4
2017-12-23T02:15:55.891Z,1023.42
2017-12-23T02:17:05.591Z,1023.6
2017-12-23T02:18:15.531Z,1023.35
2017-12-23T02:19:25.480Z,1023.4
2017-12-23T02:20:35.428Z,1023.33
2017-12-23T02:21:44.659Z,1023.27
2017-12-23T02:22:54.355Z,1023.25
2017-12-23T02:24:04.315Z,1023.23
2017-12-23T02:25:14.273Z,1023.19
2017-12-23T02:26:23.708Z,1023.34
2017-12-23T02:27:33.725Z,1023.36
2017-12-23T02:28:43.673Z,1023.38
2017-12-23T02:29:53.618Z,1023.23
2017-12-23T02:31:03.566Z,1023.31
2017-12-23T02:32:13.519Z,1023.26
2017-12-23T02:33:23.211Z,1023.16
2017-12-23T02:34:32.909Z,1023.25
2017-12-23T02:35:42.654Z,1023.26
2017-12-23T02:36:52.626Z,1023.17
2017-12-23T02:38:02.323Z,1023.16
2017-12-23T02:39:12.021Z,1023.22
2017-12-23T02:40:21.715Z,1023.2
2017-12-23T02:41:31.673Z,1023.21
2017-12-23T02:42:41.637Z,1023.3
2017-12-23T02:43:51.605Z,1023.12
2017-12-23T02:45:01.555Z,1023.18
2017-12-23T02:46:10.991Z,1023.12
2017-12-23T02:47:20.692Z,1023.12
2017-12-23T02:48:30.642Z,1023.08
2017-12-23T02:49:40.358Z,1022.98
2017-12-23T02:50:50.327Z,1023
2017-12-23T02:52:00.036Z,1022.93
2017-12-23T02:53:09.998Z,1022.92
2017-12-23T02:54:19.678Z,1022.85
2017-12-23T02:55:29.640Z,1022.85
2017-12-23T02:56:39.605Z,1022.92
2017-12-23T02:57:49.560Z,1022.95
2017-12-23T02:58:59.522Z,1022.88
2017-12-23T03:00:09.481Z,1022.98
2017-12-23T03:01:19.427Z,1023.03
2017-12-23T03:02:29.373Z,1022.9
2017-12-23T03:03:39.063Z,1022.95
2017-12-23T03:04:49.155Z,1022.98
2017-12-23T03:05:58.842Z,1023.04
2017-12-23T03:07:08.792Z,1023.05
2017-12-23T03:08:18.483Z,1023
2017-12-23T03:09:28.432Z,1022.98
2017-12-23T03:10:38.390Z,1023.05
2017-12-23T03:11:48.336Z,1022.94
2017-12-23T03:12:58.283Z,1023.04
2017-12-23T03:14:08.225Z,1022.97
2017-12-23T03:15:18.166Z,1023.01
2017-12-23T03:16:28.129Z,1023.13
2017-12-23T03:17:38.082Z,1022.96
2017-12-23T03:18:47.776Z,1022.91
2017-12-23T03:19:57.722Z,1022.92
2017-12-23T03:21:07.678Z,1022.94
2017-12-23T03:22:17.624Z,1022.99
2017-12-23T03:23:27.579Z,1022.94
2017-12-23T03:24:37.520Z,1022.9
2017-12-23T03:25:47.475Z,1022.95
2017-12-23T03:26:56.920Z,1023.02
2017-12-23T03:28:06.623Z,1022.96
2017-12-23T03:29:16.565Z,1022.97
2017-12-23T03:30:26.515Z,1023.11
2017-12-23T03:31:36.211Z,1022.93
2017-12-23T03:32:46.161Z,1022.93
2017-12-23T03:33:55.590Z,1022.99
2017-12-23T03:35:05.284Z,1022.94
2017-12-23T03:36:15.067Z,1022.89
2017-12-23T03:37:25.010Z,1022.83
2017-12-23T03:38:34.710Z,1022.84
2017-12-23T03:39:44.644Z,1022.73
2017-12-23T03:40:54.593Z,1022.73
2017-12-23T03:42:04.559Z,1022.77
2017-12-23T03:43:14.508Z,1022.64
2017-12-23T03:44:24.189Z,1022.66
2017-12-23T03:45:34.130Z,1022.48
2017-12-23T03:46:43.818Z,1022.55
2017-12-23T03:47:53.502Z,1022.48
2017-12-23T03:49:03.192Z,1022.33
2017-12-23T03:50:13.148Z,1022.35
2017-12-23T03:51:23.094Z,1022.31
2017-12-23T03:52:33.057Z,1022.33
2017-12-23T03:53:42.752Z,1022.27
2017-12-23T03:54:52.448Z,1022.23
2017-12-23T03:56:02.154Z,1022.25
2017-12-23T03:57:11.843Z,1022.21
2017-12-23T03:58:21.790Z,1022.24
2017-12-23T03:59:31.734Z,1022.21
2017-12-23T04:00:41.672Z,1022.14
2017-12-23T04:01:51.613Z,1022.04
2017-12-23T04:03:01.554Z,1022.03
2017-12-23T04:04:11.495Z,1022.14
2017-12-23T04:05:21.451Z,1022.16
2017-12-23T04:06:31.143Z,1022.15
2017-12-23T04:07:40.846Z,1022.13
2017-12-23T04:08:50.788Z,1022.1
2017-12-23T04:10:00.807Z,1022.11
2017-12-23T04:11:10.820Z,1022.03
2017-12-23T04:12:20.512Z,1022.04
2017-12-23T04:13:30.461Z,1022.14
2017-12-23T04:14:40.479Z,1022.08
2017-12-23T04:15:50.422Z,1022.12
2017-12-23T04:17:00.109Z,1022.09
2017-12-23T04:18:10.060Z,1022.11
2017-12-23T04:19:19.750Z,1022.16
2017-12-23T04:20:29.690Z,1022.05
2017-12-23T04:21:39.118Z,1022.06
2017-12-23T04:22:48.817Z,1021.98
2017-12-23T04:23:58.757Z,1022.03
2017-12-23T04:25:08.451Z,1022.02
2017-12-23T04:26:18.401Z,1021.95
2017-12-23T04:27:28.096Z,1021.92
2017-12-23T04:28:38.048Z,1021.95
2017-12-23T04:29:47.994Z,1021.94
2017-12-23T04:30:57.935Z,1021.97
2017-12-23T04:32:07.883Z,1021.94
2017-12-23T04:33:17.824Z,1022.12
2017-12-23T04:34:27.771Z,1022.02
2017-12-23T04:35:37.731Z,1022.06
2017-12-23T04:36:47.687Z,1021.97
2017-12-23T04:37:57.648Z,1022.03
2017-12-23T04:39:07.593Z,1021.97
2017-12-23T04:40:17.302Z,1021.88
2017-12-23T04:41:26.995Z,1021.9
2017-12-23T04:42:36.693Z,1021.83
2017-12-23T04:43:46.639Z,1021.84
2017-12-23T04:44:56.582Z,1021.76
2017-12-23T04:46:06.284Z,1021.76
2017-12-23T04:47:16.229Z,1021.78
2017-12-23T04:48:26.174Z,1021.75
2017-12-23T04:49:36.363Z,1021.67
2017-12-23T04:50:46.314Z,1021.63
2017-12-23T04:51:56.261Z,1021.66
2017-12-23T04:53:05.949Z,1021.71
2017-12-23T04:54:15.892Z,1021.5
2017-12-23T04:55:25.847Z,1021.55
2017-12-23T04:56:35.286Z,1021.51
2017-12-23T04:57:45.236Z,1021.36
2017-12-23T04:58:54.682Z,1021.48
2017-12-23T05:00:04.631Z,1021.44
2017-12-23T05:01:14.319Z,1021.49
2017-12-23T05:02:24.254Z,1021.49
2017-12-23T05:03:33.952Z,1021.45
2017-12-23T05:04:43.634Z,1021.36
2017-12-23T05:05:53.578Z,1021.36
2017-12-23T05:07:03.523Z,1021.36
2017-12-23T05:08:13.469Z,1021.39
2017-12-23T05:09:23.167Z,1021.37
2017-12-23T05:10:32.868Z,1021.38
2017-12-23T05:11:42.820Z,1021.45
2017-12-23T05:12:52.760Z,1021.37
2017-12-23T05:14:02.699Z,1021.35
2017-12-23T05:15:12.388Z,1021.32
2017-12-23T05:16:22.078Z,1021.35
2017-12-23T05:17:32.017Z,1021.44
2017-12-23T05:18:41.442Z,1021.43
2017-12-23T05:19:51.390Z,1021.35
2017-12-23T05:21:01.325Z,1021.3
2017-12-23T05:22:11.342Z,1021.29
2017-12-23T05:23:21.290Z,1021.33
2017-12-23T05:24:30.976Z,1021.3
2017-12-23T05:25:40.918Z,1021.33
2017-12-23T05:26:50.601Z,1021.33
2017-12-23T05:28:00.289Z,1021.28
2017-12-23T05:29:10.261Z,1021.26
2017-12-23T05:30:20.206Z,1021.26
2017-12-23T05:31:29.899Z,1021.23
2017-12-23T05:32:39.591Z,1021.07
2017-12-23T05:33:49.274Z,1021.38
2017-12-23T05:34:58.976Z,1021.3
2017-12-23T05:36:08.985Z,1021.36
2017-12-23T05:37:18.690Z,1021.44
2017-12-23T05:38:28.654Z,1021.37
2017-12-23T05:39:38.613Z,1021.36
2017-12-23T05:40:48.580Z,1021.35
2017-12-23T05:41:58.535Z,1021.35
2017-12-23T05:43:07.961Z,1021.39
2017-12-23T05:44:17.905Z,1021.43
2017-12-23T05:45:27.848Z,1021.39
2017-12-23T05:46:37.822Z,1021.38
2017-12-23T05:47:47.783Z,1021.51
2017-12-23T05:48:57.726Z,1021.35
2017-12-23T05:50:07.675Z,1021.41
2017-12-23T05:51:17.614Z,1021.44
2017-12-23T05:52:27.050Z,1021.34
2017-12-23T05:53:36.484Z,1021.4
2017-12-23T05:54:46.495Z,1021.37
2017-12-23T05:55:56.440Z,1021.33
2017-12-23T05:57:06.375Z,1021.3
2017-12-23T05:58:16.328Z,1021.27
2017-12-23T05:59:25.764Z,1021.19
2017-12-23T06:00:35.712Z,1021.24
2017-12-23T06:01:45.670Z,1021.19
2017-12-23T06:02:55.616Z,1021.08
2017-12-23T06:04:05.570Z,1021.26
2017-12-23T06:05:15.520Z,1021.16
2017-12-23T06:06:25.478Z,1021.22
2017-12-23T06:07:35.431Z,1021.2
2017-12-23T06:08:45.381Z,1021.02
2017-12-23T06:09:55.329Z,1021
2017-12-23T06:11:05.281Z,1021.13
2017-12-23T06:12:15.218Z,1021.06
2017-12-23T06:13:25.170Z,1021.19
2017-12-23T06:14:35.108Z,1020.95
2017-12-23T06:15:44.804Z,1020.89
2017-12-23T06:16:54.753Z,1020.78
2017-12-23T06:18:04.450Z,1020.76
2017-12-23T06:19:14.407Z,1020.61
2017-12-23T06:20:24.348Z,1020.59
2017-12-23T06:21:34.302Z,1020.59
2017-12-23T06:22:44.251Z,1020.72
2017-12-23T06:23:53.938Z,1020.64
2017-12-23T06:25:03.878Z,1020.56
2017-12-23T06:26:13.815Z,1020.56
2017-12-23T06:27:23.516Z,1020.5
2017-12-23T06:28:33.464Z,1020.58
2017-12-23T06:29:42.887Z,1020.55
2017-12-23T06:30:52.830Z,1020.54
2017-12-23T06:32:02.776Z,1020.65
2017-12-23T06:33:12.723Z,1020.59
2017-12-23T06:34:22.664Z,1020.64
2017-12-23T06:35:32.608Z,1020.63
2017-12-23T06:36:42.562Z,1020.49
2017-12-23T06:37:52.514Z,1020.57
2017-12-23T06:39:02.204Z,1020.43
2017-12-23T06:40:12.147Z,1020.65
2017-12-23T06:41:22.100Z,1020.42
2017-12-23T06:42:31.798Z,1020.43
2017-12-23T06:43:41.757Z,1020.37
2017-12-23T06:44:51.703Z,1020.46
2017-12-23T06:46:01.730Z,1020.34
2017-12-23T06:47:11.693Z,1020.18
2017-12-23T06:48:21.632Z,1020.26
2017-12-23T06:49:31.571Z,1020.26
2017-12-23T06:50:41.256Z,1020.14
2017-12-23T06:51:50.950Z,1020.18
2017-12-23T06:53:00.890Z,1020.15
2017-12-23T06:54:10.586Z,1020.21
2017-12-23T06:55:20.547Z,1020.13
2017-12-23T06:56:30.494Z,1020.05
2017-12-23T06:57:40.458Z,1020.09
2017-12-23T06:58:50.409Z,1019.88
2017-12-23T06:59:59.589Z,1020.17
2017-12-23T07:01:09.273Z,1020.31
2017-12-23T07:02:19.213Z,1020.19
2017-12-23T07:03:28.948Z,1020.09
2017-12-23T07:04:38.907Z,1020.12
2017-12-23T07:05:48.858Z,1020.14
2017-12-23T07:06:58.557Z,1020.4
2017-12-23T07:08:08.247Z,1020.04
2017-12-23T07:09:18.190Z,1020.16
2017-12-23T07:10:28.141Z,1020.15
2017-12-23T07:11:38.083Z,1020.1
2017-12-23T07:12:48.027Z,1020.1
2017-12-23T07:13:57.982Z,1020.15
2017-12-23T07:15:07.662Z,1019.98
2017-12-23T07:16:17.616Z,1019.99
2017-12-23T07:17:27.558Z,1019.98
2017-12-23T07:18:37.507Z,1020
2017-12-23T07:19:47.469Z,1020.08
2017-12-23T07:20:57.444Z,1020.03
2017-12-23T07:22:07.134Z,1020.03
2017-12-23T07:23:16.583Z,1019.99
2017-12-23T07:24:26.531Z,1019.97
2017-12-23T07:25:36.478Z,1019.98
2017-12-23T07:26:46.426Z,1019.98
2017-12-23T07:27:56.112Z,1019.88
2017-12-23T07:29:06.074Z,1019.9
2017-12-23T07:30:15.526Z,1019.85
2017-12-23T07:31:25.481Z,1019.81
2017-12-23T07:32:35.419Z,1019.94
2017-12-23T07:33:45.375Z,1019.87
2017-12-23T07:34:55.328Z,1019.71
2017-12-23T07:36:04.503Z,1019.8
2017-12-23T07:37:14.447Z,1019.83
2017-12-23T07:38:24.400Z,1019.86
2017-12-23T07:39:34.351Z,1019.86
2017-12-23T07:40:44.363Z,1019.71
2017-12-23T07:41:54.355Z,1019.78
2017-12-23T07:43:03.786Z,1019.73
2017-12-23T07:44:13.731Z,1019.82
2017-12-23T07:45:23.424Z,1019.77
2017-12-23T07:46:33.130Z,1019.75
2017-12-23T07:47:43.081Z,1019.71
2017-12-23T07:48:52.767Z,1019.75
2017-12-23T07:50:02.460Z,1019.7
2017-12-23T07:51:12.419Z,1019.57
2017-12-23T07:52:22.367Z,1019.53
2017-12-23T07:53:32.372Z,1019.52
2017-12-23T07:54:42.341Z,1019.63
2017-12-23T07:55:52.054Z,1019.48
2017-12-23T07:57:02.016Z,1019.5
2017-12-23T07:58:11.977Z,1019.43
2017-12-23T07:59:21.930Z,1019.48
2017-12-23T08:00:31.626Z,1019.39
2017-12-23T08:01:41.569Z,1019.51
2017-12-23T08:02:51.524Z,1019.5
2017-12-23T08:04:01.472Z,1019.44
2017-12-23T08:05:11.435Z,1019.46
2017-12-23T08:06:21.386Z,1019.44
2017-12-23T08:07:31.361Z,1019.44
2017-12-23T08:08:41.463Z,1019.31
2017-12-23T08:09:51.167Z,1019.34
2017-12-23T08:11:01.116Z,1019.35
2017-12-23T08:12:10.827Z,1019.22
2017-12-23T08:13:20.820Z,1019.18
2017-12-23T08:14:30.255Z,1019.18
2017-12-23T08:15:40.272Z,1019.1
2017-12-23T08:16:50.219Z,1019.12
2017-12-23T08:18:00.178Z,1019.23
2017-12-23T08:19:09.877Z,1019.24
2017-12-23T08:20:19.821Z,1019.25
2017-12-23T08:21:29.527Z,1019.2
2017-12-23T08:22:39.474Z,1019.16
2017-12-23T08:23:49.200Z,1019.31
2017-12-23T08:24:59.143Z,1019.17
2017-12-23T08:26:09.108Z,1019.18
2017-12-23T08:27:19.071Z,1019.14
2017-12-23T08:28:28.760Z,1019.2
2017-12-23T08:29:38.728Z,1019.2
2017-12-23T08:30:48.430Z,1019.08
2017-12-23T08:31:58.378Z,1019.11
2017-12-23T08:33:08.333Z,1019.02
2017-12-23T08:34:18.283Z,1019.01
2017-12-23T08:35:28.246Z,1019.08
2017-12-23T08:36:38.203Z,1019.09
2017-12-23T08:37:47.664Z,1019.09
2017-12-23T08:38:57.357Z,1019.18
2017-12-23T08:40:07.303Z,1019.35
2017-12-23T08:41:17.250Z,1019.25
2017-12-23T08:42:27.211Z,1019.09
2017-12-23T08:43:36.888Z,1019.17
2017-12-23T08:44:46.854Z,1019.04
2017-12-23T08:45:56.564Z,1019.04
2017-12-23T08:47:06.524Z,1019.13
2017-12-23T08:48:15.968Z,1019.06
2017-12-23T08:49:25.659Z,1019.13
2017-12-23T08:50:35.369Z,1019.13
2017-12-23T08:51:45.347Z,1019.2
2017-12-23T08:52:55.048Z,1019.1
2017-12-23T08:54:05.009Z,1019.17
2017-12-23T08:55:14.966Z,1018.93
2017-12-23T08:56:24.924Z,1018.99
2017-12-23T08:57:34.892Z,1018.9
2017-12-23T08:58:44.860Z,1019.01
2017-12-23T08:59:54.813Z,1018.93
2017-12-23T09:01:04.774Z,1018.91
2017-12-23T09:02:14.720Z,1018.96
2017-12-23T09:03:24.678Z,1018.94
2017-12-23T09:04:34.370Z,1019.1
2017-12-23T09:05:44.329Z,1018.96
2017-12-23T09:06:54.278Z,1019.07
2017-12-23T09:08:04.229Z,1018.99
2017-12-23T09:09:14.190Z,1019.33
2017-12-23T09:10:24.141Z,1019.06
2017-12-23T09:11:34.080Z,1019.2
2017-12-23T09:12:44.044Z,1019.07
2017-12-23T09:13:54.010Z,1019.36
2017-12-23T09:15:03.964Z,1019.34
2017-12-23T09:16:13.921Z,1019.38
2017-12-23T09:17:24.144Z,1019.34
2017-12-23T09:18:34.105Z,1019.46
2017-12-23T09:19:44.060Z,1019.53
2017-12-23T09:20:53.773Z,1019.37
2017-12-23T09:22:03.209Z,1019.63
2017-12-23T09:23:13.158Z,1019.84
2017-12-23T09:24:22.862Z,1019.59
2017-12-23T09:25:32.823Z,1019.7
2017-12-23T09:26:42.523Z,1019.55
2017-12-23T09:27:52.735Z,1019.52
2017-12-23T09:29:02.446Z,1019.51
2017-12-23T09:30:12.402Z,1019.5
2017-12-23T09:31:22.087Z,1019.34
2017-12-23T09:32:31.777Z,1019.45
2017-12-23T09:33:41.734Z,1019.49
2017-12-23T09:34:51.188Z,1019.67
2017-12-23T09:36:01.171Z,1019.57
2017-12-23T09:37:10.870Z,1019.5
2017-12-23T09:38:20.573Z,1019.59
2017-12-23T09:39:30.553Z,1019.47
2017-12-23T09:40:40.265Z,1019.43
2017-12-23T09:41:49.715Z,1019.43
2017-12-23T09:42:59.685Z,1019.46
2017-12-23T09:44:09.390Z,1019.31
2017-12-23T09:45:19.351Z,1019.27
2017-12-23T09:46:29.306Z,1019.38
2017-12-23T09:47:39.263Z,1019.29
2017-12-23T09:48:49.219Z,1019.33
2017-12-23T09:49:59.183Z,1019.21
2017-12-23T09:51:08.881Z,1019.2
2017-12-23T09:52:18.575Z,1019.18
2017-12-23T09:53:28.301Z,1019.21
2017-12-23T09:54:38.262Z,1019.07
2017-12-23T09:55:48.218Z,1019.08
2017-12-23T09:56:57.644Z,1019.02
2017-12-23T09:58:07.335Z,1019.08
2017-12-23T09:59:17.346Z,1018.88
2017-12-23T10:00:27.037Z,1018.81
2017-12-23T10:01:36.744Z,1018.85
2017-12-23T10:02:46.444Z,1018.93
2017-12-23T10:03:55.884Z,1018.91
2017-12-23T10:05:05.591Z,1018.99
2017-12-23T10:06:15.550Z,1019.1
2017-12-23T10:07:25.246Z,1018.97
2017-12-23T10:08:35.195Z,1019
2017-12-23T10:09:45.171Z,1019.09
2017-12-23T10:10:55.118Z,1019.07
2017-12-23T10:12:05.065Z,1019.15
2017-12-23T10:13:15.007Z,1018.94
2017-12-23T10:14:24.182Z,1018.8
2017-12-23T10:15:34.141Z,1018.73
2017-12-23T10:16:43.832Z,1018.84
2017-12-23T10:17:53.528Z,1018.79
2017-12-23T10:19:03.484Z,1018.88
2017-12-23T10:20:13.443Z,1018.8
2017-12-23T10:21:23.398Z,1018.74
2017-12-23T10:22:33.365Z,1018.89
2017-12-23T10:23:43.313Z,1018.71
2017-12-23T10:24:53.271Z,1018.82
2017-12-23T10:26:03.242Z,1018.8
2017-12-23T10:27:13.204Z,1018.78
2017-12-23T10:28:22.905Z,1018.87
2017-12-23T10:29:32.860Z,1018.91
2017-12-23T10:30:42.822Z,1018.8
2017-12-23T10:31:52.781Z,1018.77
2017-12-23T10:33:02.475Z,1018.83
2017-12-23T10:34:12.432Z,1018.77
2017-12-23T10:35:22.406Z,1018.77
2017-12-23T10:36:32.358Z,1018.78
2017-12-23T10:37:42.074Z,1018.61
2017-12-23T10:38:52.023Z,1018.83
2017-12-23T10:40:01.722Z,1018.69
2017-12-23T10:41:11.740Z,1018.62
2017-12-23T10:42:21.700Z,1018.6
2017-12-23T10:43:31.147Z,1018.58
2017-12-23T10:44:41.090Z,1018.5
2017-12-23T10:45:51.048Z,1018.51
2017-12-23T10:47:00.748Z,1018.46
2017-12-23T10:48:10.463Z,1018.51
2017-12-23T10:49:20.411Z,1018.54
2017-12-23T10:50:30.364Z,1018.52
2017-12-23T10:51:40.394Z,1018.52
2017-12-23T10:52:50.087Z,1018.56
2017-12-23T10:54:00.048Z,1018.44
2017-12-23T10:55:10.017Z,1018.38
2017-12-23T10:56:19.713Z,1018.34
2017-12-23T10:57:29.667Z,1018.35
2017-12-23T10:58:39.371Z,1018.36
2017-12-23T10:59:48.828Z,1018.47
2017-12-23T11:00:58.790Z,1018.41
2017-12-23T11:02:08.736Z,1018.52
2017-12-23T11:03:18.439Z,1018.56
2017-12-23T11:04:28.466Z,1018.3
2017-12-23T11:05:38.156Z,1018.3
2017-12-23T11:06:48.102Z,1018.03
2017-12-23T11:07:58.068Z,1018.21
2017-12-23T11:09:08.017Z,1018.17
2017-12-23T11:10:18.014Z,1018.11
2017-12-23T11:11:27.978Z,1018.18
2017-12-23T11:12:37.953Z,1018.05
2017-12-23T11:13:47.906Z,1018.05
2017-12-23T11:14:57.870Z,1018.19
2017-12-23T11:16:07.839Z,1018.36
2017-12-23T11:17:17.545Z,1017.97
2017-12-23T11:18:27.569Z,1017.76
2017-12-23T11:19:37.297Z,1017.94
2017-12-23T11:20:47.252Z,1017.88
2017-12-23T11:21:56.443Z,1018.03
2017-12-23T11:23:06.146Z,1017.93
2017-12-23T11:24:15.834Z,1017.82
2017-12-23T11:25:25.807Z,1017.85
2017-12-23T11:26:35.767Z,1017.84
2017-12-23T11:27:45.473Z,1017.74
2017-12-23T11:28:55.163Z,1017.92
2017-12-23T11:30:05.123Z,1017.64
2017-12-23T11:31:15.097Z,1017.54
2017-12-23T11:32:25.057Z,1017.55
2017-12-23T11:33:35.013Z,1017.79
2017-12-23T11:34:44.982Z,1017.27
2017-12-23T11:35:54.688Z,1017.38
2017-12-23T11:37:04.714Z,1017.55
2017-12-23T11:38:14.669Z,1017.6
2017-12-23T11:39:24.634Z,1018.19
2017-12-23T11:40:34.603Z,1017.46
2017-12-23T11:41:44.559Z,1017.67
2017-12-23T11:42:54.509Z,1017.38
2017-12-23T11:44:04.210Z,1017.59
2017-12-23T11:45:13.667Z,1017.43
2017-12-23T11:46:23.649Z,1017.25
2017-12-23T11:47:33.602Z,1017.28
2017-12-23T11:48:43.562Z,1017.29
2017-12-23T11:49:53.545Z,1017.38
2017-12-23T11:51:03.504Z,1017.39
2017-12-23T11:52:13.249Z,1017.46
2017-12-23T11:53:23.209Z,1017.37
2017-12-23T11:54:33.195Z,1017.3
2017-12-23T11:55:43.154Z,1017.3
2017-12-23T11:56:53.105Z,1017.37
2017-12-23T11:58:03.072Z,1017.55
2017-12-23T11:59:13.035Z,1017.25
2017-12-23T12:00:23.012Z,1017.26
2017-12-23T12:01:32.974Z,1017.2
2017-12-23T12:02:42.692Z,1016.98
2017-12-23T12:03:52.399Z,1016.9
2017-12-23T12:05:02.345Z,1016.9
2017-12-23T12:06:12.052Z,1016.8
2017-12-23T12:07:22.005Z,1017.09
2017-12-23T12:08:31.982Z,1016.99
2017-12-23T12:09:41.933Z,1016.84
2017-12-23T12:10:51.893Z,1016.88
2017-12-23T12:12:01.867Z,1016.86
2017-12-23T12:13:11.847Z,1016.99
2017-12-23T12:14:21.551Z,1016.84
2017-12-23T12:15:31.246Z,1016.93
2017-12-23T12:16:40.995Z,1016.99
2017-12-23T12:17:50.952Z,1016.65
2017-12-23T12:19:00.661Z,1016.66
2017-12-23T12:20:10.624Z,1016.66
2017-12-23T12:21:20.580Z,1016.59
2017-12-23T12:22:30.283Z,1016.61
2017-12-23T12:23:40.233Z,1016.79
2017-12-23T12:24:49.947Z,1016.78
2017-12-23T12:25:59.667Z,1016.48
2017-12-23T12:27:09.643Z,1016.75
2017-12-23T12:28:19.649Z,1016.54
2017-12-23T12:29:29.363Z,1016.49
2017-12-23T12:30:39.337Z,1016.32
2017-12-23T12:31:49.058Z,1016.51
2017-12-23T12:32:59.033Z,1016.5
2017-12-23T12:34:08.991Z,1016.34
2017-12-23T12:35:18.963Z,1016.54
2017-12-23T12:36:28.939Z,1016.45
2017-12-23T12:37:38.899Z,1016.66
2017-12-23T12:38:48.860Z,1016.39
2017-12-23T12:39:58.301Z,1016.4
2017-12-23T12:41:07.994Z,1016.47
2017-12-23T12:42:17.974Z,1016.36
2017-12-23T12:43:27.936Z,1016.5
2017-12-23T12:44:37.903Z,1016.58
2017-12-23T12:45:47.880Z,1016.3
2017-12-23T12:46:57.843Z,1016.44
2017-12-23T12:48:07.801Z,1016.56
2017-12-23T12:49:17.497Z,1016.37
2017-12-23T12:50:27.456Z,1016.74
2017-12-23T12:51:37.420Z,1016.64
2017-12-23T12:52:47.387Z,1016.46
2017-12-23T12:53:57.366Z,1016.38
2017-12-23T12:55:07.069Z,1016.34
2017-12-23T12:56:17.131Z,1016.22
2017-12-23T12:57:27.107Z,1016.23
2017-12-23T12:58:36.816Z,1016.19
2017-12-23T12:59:46.796Z,1016.43
2017-12-23T13:00:56.264Z,1016.18
2017-12-23T13:02:06.242Z,1016.28
2017-12-23T13:03:16.206Z,1016.16
2017-12-23T13:04:26.170Z,1016.26
2017-12-23T13:05:35.608Z,1016.31
2017-12-23T13:06:45.560Z,1016.09
2017-12-23T13:07:55.523Z,1016.11
2017-12-23T13:09:05.219Z,1016.45
2017-12-23T13:10:15.172Z,1016.24
2017-12-23T13:11:25.159Z,1016.19
2017-12-23T13:12:34.851Z,1016.13
2017-12-23T13:13:44.823Z,1016.1
2017-12-23T13:14:54.799Z,1015.88
2017-12-23T13:16:04.539Z,1016.39
2017-12-23T13:17:14.287Z,1016.12
2017-12-23T13:18:24.235Z,1016.05
2017-12-23T13:19:34.206Z,1016.23
2017-12-23T13:20:43.920Z,1016.02
2017-12-23T13:21:53.866Z,1016.18
2017-12-23T13:23:03.562Z,1016.25
2017-12-23T13:24:12.999Z,1015.98
2017-12-23T13:25:22.981Z,1015.98
2017-12-23T13:26:32.956Z,1015.92
2017-12-23T13:27:42.923Z,1016.02
2017-12-23T13:28:53.125Z,1016.05
2017-12-23T13:30:03.080Z,1015.77
2017-12-23T13:31:12.784Z,1015.9
2017-12-23T13:32:22.232Z,1015.78
2017-12-23T13:33:31.936Z,1015.84
2017-12-23T13:34:41.657Z,1016
2017-12-23T13:35:51.647Z,1016.06
2017-12-23T13:37:01.603Z,1016.01
2017-12-23T13:38:11.576Z,1016.15
2017-12-23T13:39:21.528Z,1016.29
2017-12-23T13:40:31.491Z,1015.97
2017-12-23T13:41:41.187Z,1016.49
2017-12-23T13:42:51.142Z,1016.39
2017-12-23T13:44:00.841Z,1016.18
2017-12-23T13:45:10.549Z,1015.99
2017-12-23T13:46:20.253Z,1016.27
2017-12-23T13:47:30.236Z,1016.01
2017-12-23T13:48:39.920Z,1016.05
2017-12-23T13:49:49.932Z,1016.13
2017-12-23T13:50:59.637Z,1015.99
2017-12-23T13:52:09.342Z,1016.12
2017-12-23T13:53:19.306Z,1016.1
2017-12-23T13:54:28.990Z,1015.92
2017-12-23T13:55:38.772Z,1016.18
2017-12-23T13:56:48.733Z,1016.16
2017-12-23T13:57:58.426Z,1016.33
2017-12-23T13:59:08.157Z,1016.22
2017-12-23T14:00:18.108Z,1016.04
2017-12-23T14:01:27.804Z,1016.04
2017-12-23T14:02:37.509Z,1016.37
2017-12-23T14:03:47.480Z,1016.17
2017-12-23T14:04:57.198Z,1016.13
2017-12-23T14:06:07.155Z,1016.07
2017-12-23T14:07:17.116Z,1016.22
2017-12-23T14:08:26.826Z,1015.96